sensor_id;sensor_type;location;lat;lon;timestamp;pressure;altitude;pressure_sealevel;temperature;humidity
61786;BME280;47692;53.714;11.372;2022-09-09T00:01:03;100331.31;;;13.45;100.00
61786;BME280;47692;53.714;11.372;2022-09-09T00:03:43;100332.06;;;13.47;100.00
61786;BME280;47692;53.714;11.372;2022-09-09T00:08:49;100340.06;;;13.44;100.00
61786;BME280;47692;53.714;11.372;2022-09-09T00:11:20;100336.53;;;13.45;100.00
61786;BME280;47692;53.714;11.372;2022-09-09T00:13:52;100336.53;;;13.45;100.00
61786;BME280;47692;53.714;11.372;2022-09-09T00:16:27;100330.44;;;13.45;100.00
61786;BME280;47692;53.714;11.372;2022-09-09T00:21:31;100338.38;;;13.43;100.00
61786;BME280;47692;53.714;11.372;2022-09-09T00:23:58;100328.72;;;13.44;100.00
61786;BME280;47692;53.714;11.372;2022-09-09T00:26:42;100338.22;;;13.46;100.00
61786;BME280;47692;53.714;11.372;2022-09-09T00:31:37;100326.91;;;13.46;100.00
61786;BME280;47692;53.714;11.372;2022-09-09T00:34:12;100322.63;;;13.43;100.00
61786;BME280;47692;53.714;11.372;2022-09-09T00:36:39;100325.00;;;13.49;100.00
61786;BME280;47692;53.714;11.372;2022-09-09T00:39:13;100325.91;;;13.48;100.00
61786;BME280;47692;53.714;11.372;2022-09-09T00:46:56;100320.41;;;13.54;100.00
61786;BME280;47692;53.714;11.372;2022-09-09T00:52:36;100308.34;;;13.50;100.00
61786;BME280;47692;53.714;11.372;2022-09-09T00:55:11;100307.47;;;13.50;100.00
61786;BME280;47692;53.714;11.372;2022-09-09T00:57:40;100309.38;;;13.46;100.00
61786;BME280;47692;53.714;11.372;2022-09-09T01:00:27;100312.00;;;13.46;100.00
61786;BME280;47692;53.714;11.372;2022-09-09T01:08:44;100312.72;;;13.50;100.00
61786;BME280;47692;53.714;11.372;2022-09-09T01:11:26;100309.13;;;13.52;100.00
61786;BME280;47692;53.714;11.372;2022-09-09T01:14:10;100315.16;;;13.54;100.00
61786;BME280;47692;53.714;11.372;2022-09-09T01:16:40;100310.00;;;13.53;100.00
61786;BME280;47692;53.714;11.372;2022-09-09T01:19:10;100313.59;;;13.50;100.00
61786;BME280;47692;53.714;11.372;2022-09-09T01:21:50;100321.66;;;13.46;100.00
61786;BME280;47692;53.714;11.372;2022-09-09T01:27:26;100318.22;;;13.44;100.00
61786;BME280;47692;53.714;11.372;2022-09-09T01:29:52;100314.19;;;13.35;100.00
61786;BME280;47692;53.714;11.372;2022-09-09T01:32:46;100321.13;;;13.36;100.00
61786;BME280;47692;53.714;11.372;2022-09-09T01:38:17;100314.09;;;13.38;100.00
61786;BME280;47692;53.714;11.372;2022-09-09T01:40:42;100322.19;;;13.32;100.00
61786;BME280;47692;53.714;11.372;2022-09-09T01:43:08;100319.66;;;13.29;100.00
61786;BME280;47692;53.714;11.372;2022-09-09T01:45:34;100318.09;;;13.24;100.00
61786;BME280;47692;53.714;11.372;2022-09-09T01:48:00;100323.91;;;13.33;100.00
61786;BME280;47692;53.714;11.372;2022-09-09T01:50:26;100326.78;;;13.27;100.00
61786;BME280;47692;53.714;11.372;2022-09-09T01:52:56;100321.53;;;13.27;100.00
61786;BME280;47692;53.714;11.372;2022-09-09T01:55:37;100324.75;;;13.33;100.00
61786;BME280;47692;53.714;11.372;2022-09-09T02:00:44;100309.19;;;13.29;100.00
61786;BME280;47692;53.714;11.372;2022-09-09T02:03:27;100312.72;;;13.28;100.00
61786;BME280;47692;53.714;11.372;2022-09-09T02:06:00;100317.19;;;13.25;100.00
61786;BME280;47692;53.714;11.372;2022-09-09T02:08:40;100308.66;;;13.20;100.00
61786;BME280;47692;53.714;11.372;2022-09-09T02:11:18;100314.69;;;13.22;100.00
61786;BME280;47692;53.714;11.372;2022-09-09T02:13:50;100311.28;;;13.20;100.00
61786;BME280;47692;53.714;11.372;2022-09-09T02:18:47;100317.28;;;13.22;100.00
61786;BME280;47692;53.714;11.372;2022-09-09T02:21:14;100313.09;;;13.18;100.00
61786;BME280;47692;53.714;11.372;2022-09-09T02:23:42;100319.25;;;13.17;100.00
61786;BME280;47692;53.714;11.372;2022-09-09T02:26:10;100309.69;;;13.16;100.00
61786;BME280;47692;53.714;11.372;2022-09-09T02:28:39;100326.28;;;13.17;100.00
61786;BME280;47692;53.714;11.372;2022-09-09T02:31:05;100328.09;;;13.15;100.00
61786;BME280;47692;53.714;11.372;2022-09-09T02:33:37;100325.41;;;13.16;100.00
61786;BME280;47692;53.714;11.372;2022-09-09T02:36:06;100328.69;;;13.21;100.00
61786;BME280;47692;53.714;11.372;2022-09-09T02:38:37;100319.91;;;13.22;100.00
61786;BME280;47692;53.714;11.372;2022-09-09T02:41:05;100330.53;;;13.19;100.00
61786;BME280;47692;53.714;11.372;2022-09-09T02:43:34;100338.94;;;13.28;100.00
61786;BME280;47692;53.714;11.372;2022-09-09T02:46:23;100339.50;;;13.36;100.00
61786;BME280;47692;53.714;11.372;2022-09-09T02:48:59;100342.34;;;13.30;100.00
61786;BME280;47692;53.714;11.372;2022-09-09T02:56:38;100337.34;;;13.23;100.00
61786;BME280;47692;53.714;11.372;2022-09-09T02:59:04;100334.66;;;13.25;100.00
61786;BME280;47692;53.714;11.372;2022-09-09T03:01:30;100342.50;;;13.27;100.00
61786;BME280;47692;53.714;11.372;2022-09-09T03:03:56;100344.06;;;13.31;100.00
61786;BME280;47692;53.714;11.372;2022-09-09T03:06:22;100347.50;;;13.33;100.00
61786;BME280;47692;53.714;11.372;2022-09-09T03:08:47;100348.75;;;13.22;100.00
61786;BME280;47692;53.714;11.372;2022-09-09T03:11:14;100353.09;;;13.23;100.00
61786;BME280;47692;53.714;11.372;2022-09-09T03:13:39;100347.97;;;13.20;100.00
61786;BME280;47692;53.714;11.372;2022-09-09T03:16:05;100352.97;;;13.27;100.00
61786;BME280;47692;53.714;11.372;2022-09-09T03:18:30;100354.72;;;13.26;100.00
61786;BME280;47692;53.714;11.372;2022-09-09T03:20:57;100355.41;;;13.31;100.00
61786;BME280;47692;53.714;11.372;2022-09-09T03:23:24;100353.22;;;13.20;100.00
61786;BME280;47692;53.714;11.372;2022-09-09T03:25:50;100362.25;;;13.13;100.00
61786;BME280;47692;53.714;11.372;2022-09-09T03:28:17;100357.00;;;13.13;100.00
61786;BME280;47692;53.714;11.372;2022-09-09T03:30:42;100355.63;;;13.03;100.00
61786;BME280;47692;53.714;11.372;2022-09-09T03:33:08;100358.56;;;12.95;100.00
61786;BME280;47692;53.714;11.372;2022-09-09T03:35:33;100354.91;;;12.99;100.00
61786;BME280;47692;53.714;11.372;2022-09-09T03:37:58;100338.47;;;12.96;100.00
61786;BME280;47692;53.714;11.372;2022-09-09T03:40:25;100337.78;;;12.90;100.00
61786;BME280;47692;53.714;11.372;2022-09-09T03:42:51;100332.47;;;12.92;100.00
61786;BME280;47692;53.714;11.372;2022-09-09T03:45:16;100341.34;;;12.88;100.00
61786;BME280;47692;53.714;11.372;2022-09-09T03:47:42;100338.69;;;12.89;100.00
61786;BME280;47692;53.714;11.372;2022-09-09T03:50:07;100343.06;;;12.89;100.00
61786;BME280;47692;53.714;11.372;2022-09-09T03:52:36;100350.75;;;12.93;100.00
61786;BME280;47692;53.714;11.372;2022-09-09T03:55:02;100341.34;;;12.88;100.00
61786;BME280;47692;53.714;11.372;2022-09-09T03:57:28;100345.75;;;12.87;100.00
61786;BME280;47692;53.714;11.372;2022-09-09T03:59:55;100353.84;;;12.81;100.00
61786;BME280;47692;53.714;11.372;2022-09-09T04:02:20;100346.22;;;12.75;100.00
61786;BME280;47692;53.714;11.372;2022-09-09T04:04:46;100344.41;;;12.77;100.00
61786;BME280;47692;53.714;11.372;2022-09-09T04:07:11;100349.63;;;12.77;100.00
61786;BME280;47692;53.714;11.372;2022-09-09T04:09:37;100349.88;;;12.71;100.00
61786;BME280;47692;53.714;11.372;2022-09-09T04:12:03;100345.53;;;12.70;100.00
61786;BME280;47692;53.714;11.372;2022-09-09T04:14:28;100354.97;;;12.74;100.00
61786;BME280;47692;53.714;11.372;2022-09-09T04:16:54;100346.44;;;12.69;100.00
61786;BME280;47692;53.714;11.372;2022-09-09T04:19:22;100356.81;;;12.72;100.00
61786;BME280;47692;53.714;11.372;2022-09-09T04:21:48;100351.69;;;12.69;100.00
61786;BME280;47692;53.714;11.372;2022-09-09T04:24:17;100360.56;;;12.65;100.00
61786;BME280;47692;53.714;11.372;2022-09-09T04:26:42;100360.56;;;12.65;100.00
61786;BME280;47692;53.714;11.372;2022-09-09T04:29:08;100359.69;;;12.64;100.00
61786;BME280;47692;53.714;11.372;2022-09-09T04:31:33;100361.19;;;12.71;100.00
61786;BME280;47692;53.714;11.372;2022-09-09T04:33:59;100351.81;;;12.66;100.00
61786;BME280;47692;53.714;11.372;2022-09-09T04:36:30;100359.69;;;12.64;100.00
61786;BME280;47692;53.714;11.372;2022-09-09T04:38:56;100361.94;;;12.75;100.00
61786;BME280;47692;53.714;11.372;2022-09-09T04:41:22;100365.69;;;12.68;100.00
61786;BME280;47692;53.714;11.372;2022-09-09T04:43:48;100362.16;;;12.69;100.00
61786;BME280;47692;53.714;11.372;2022-09-09T04:46:13;100365.81;;;12.65;100.00
61786;BME280;47692;53.714;11.372;2022-09-09T04:48:38;100355.94;;;12.71;100.00
61786;BME280;47692;53.714;11.372;2022-09-09T04:51:06;100367.16;;;12.75;100.00
61786;BME280;47692;53.714;11.372;2022-09-09T04:53:34;100371.50;;;12.76;100.00
61786;BME280;47692;53.714;11.372;2022-09-09T04:56:04;100377.72;;;12.73;100.00
61786;BME280;47692;53.714;11.372;2022-09-09T04:58:30;100379.34;;;12.76;100.00
61786;BME280;47692;53.714;11.372;2022-09-09T05:01:03;100370.59;;;12.77;100.00
61786;BME280;47692;53.714;11.372;2022-09-09T05:03:28;100370.69;;;12.74;100.00
61786;BME280;47692;53.714;11.372;2022-09-09T05:05:54;100382.88;;;12.75;100.00
61786;BME280;47692;53.714;11.372;2022-09-09T05:08:19;100377.66;;;12.75;100.00
61786;BME280;47692;53.714;11.372;2022-09-09T05:10:45;100383.72;;;12.75;100.00
61786;BME280;47692;53.714;11.372;2022-09-09T05:13:11;100380.16;;;12.78;100.00
61786;BME280;47692;53.714;11.372;2022-09-09T05:15:36;100371.13;;;12.85;100.00
61786;BME280;47692;53.714;11.372;2022-09-09T05:18:02;100385.84;;;12.89;100.00
61786;BME280;47692;53.714;11.372;2022-09-09T05:20:27;100387.66;;;12.87;100.00
61786;BME280;47692;53.714;11.372;2022-09-09T05:22:54;100389.03;;;12.98;100.00
61786;BME280;47692;53.714;11.372;2022-09-09T05:25:19;100390.88;;;12.96;100.00
61786;BME280;47692;53.714;11.372;2022-09-09T05:27:45;100400.25;;;13.01;100.00
61786;BME280;47692;53.714;11.372;2022-09-09T05:30:10;100392.22;;;13.06;100.00
61786;BME280;47692;53.714;11.372;2022-09-09T05:32:36;100391.53;;;13.01;100.00
61786;BME280;47692;53.714;11.372;2022-09-09T05:35:02;100396.66;;;13.04;100.00
61786;BME280;47692;53.714;11.372;2022-09-09T05:37:27;100401.13;;;13.02;100.00
61786;BME280;47692;53.714;11.372;2022-09-09T05:39:54;100402.56;;;13.09;100.00
61786;BME280;47692;53.714;11.372;2022-09-09T05:42:20;100392.06;;;13.09;100.00
61786;BME280;47692;53.714;11.372;2022-09-09T05:44:45;100400.75;;;13.11;100.00
61786;BME280;47692;53.714;11.372;2022-09-09T05:47:10;100402.22;;;13.18;100.00
61786;BME280;47692;53.714;11.372;2022-09-09T05:49:36;100409.34;;;13.15;100.00
61786;BME280;47692;53.714;11.372;2022-09-09T05:52:02;100408.38;;;13.17;100.00
61786;BME280;47692;53.714;11.372;2022-09-09T05:54:29;100407.34;;;13.21;100.00
61786;BME280;47692;53.714;11.372;2022-09-09T05:56:55;100403.47;;;13.32;100.00
61786;BME280;47692;53.714;11.372;2022-09-09T05:59:20;100405.66;;;13.43;100.00
61786;BME280;47692;53.714;11.372;2022-09-09T06:01:46;100402.44;;;13.58;100.00
61786;BME280;47692;53.714;11.372;2022-09-09T06:04:11;100403.47;;;13.76;100.00
61786;BME280;47692;53.714;11.372;2022-09-09T06:06:38;100401.38;;;13.84;100.00
61786;BME280;47692;53.714;11.372;2022-09-09T06:09:06;100403.09;;;13.85;100.00
61786;BME280;47692;53.714;11.372;2022-09-09T06:11:35;100410.91;;;13.87;100.00
61786;BME280;47692;53.714;11.372;2022-09-09T06:14:02;100422.38;;;13.84;100.00
61786;BME280;47692;53.714;11.372;2022-09-09T06:16:28;100419.75;;;13.84;100.00
61786;BME280;47692;53.714;11.372;2022-09-09T06:18:55;100420.66;;;13.83;100.00
61786;BME280;47692;53.714;11.372;2022-09-09T06:23:48;100430.66;;;13.73;100.00
61786;BME280;47692;53.714;11.372;2022-09-09T06:26:18;100435.06;;;13.73;100.00
61786;BME280;47692;53.714;11.372;2022-09-09T06:28:45;100428.38;;;13.66;100.00
61786;BME280;47692;53.714;11.372;2022-09-09T06:31:12;100430.09;;;13.67;100.00
61786;BME280;47692;53.714;11.372;2022-09-09T06:33:41;100423.53;;;13.77;100.00
61786;BME280;47692;53.714;11.372;2022-09-09T06:36:11;100424.75;;;13.90;100.00
61786;BME280;47692;53.714;11.372;2022-09-09T06:38:37;100425.53;;;14.13;100.00
61786;BME280;47692;53.714;11.372;2022-09-09T06:41:02;100420.31;;;14.34;100.00
61786;BME280;47692;53.714;11.372;2022-09-09T06:43:28;100430.13;;;14.49;100.00
61786;BME280;47692;53.714;11.372;2022-09-09T06:46:01;100427.88;;;14.61;100.00
61786;BME280;47692;53.714;11.372;2022-09-09T06:48:27;100436.38;;;14.47;100.00
61786;BME280;47692;53.714;11.372;2022-09-09T06:51:17;100440.91;;;14.43;100.00
61786;BME280;47692;53.714;11.372;2022-09-09T06:53:43;100449.00;;;14.38;100.00
61786;BME280;47692;53.714;11.372;2022-09-09T06:58:35;100447.94;;;14.22;100.00
61786;BME280;47692;53.714;11.372;2022-09-09T07:01:07;100445.44;;;14.19;100.00
61786;BME280;47692;53.714;11.372;2022-09-09T07:03:33;100436.19;;;14.31;100.00
61786;BME280;47692;53.714;11.372;2022-09-09T07:05:59;100439.28;;;14.41;100.00
61786;BME280;47692;53.714;11.372;2022-09-09T07:08:24;100435.84;;;14.59;100.00
61786;BME280;47692;53.714;11.372;2022-09-09T07:10:51;100438.69;;;14.94;100.00
61786;BME280;47692;53.714;11.372;2022-09-09T07:13:23;100435.94;;;15.16;100.00
61786;BME280;47692;53.714;11.372;2022-09-09T07:15:50;100445.59;;;15.35;100.00
61786;BME280;47692;53.714;11.372;2022-09-09T07:18:15;100445.47;;;15.38;100.00
61786;BME280;47692;53.714;11.372;2022-09-09T07:20:41;100452.53;;;15.55;100.00
61786;BME280;47692;53.714;11.372;2022-09-09T07:23:06;100454.94;;;15.60;100.00
61786;BME280;47692;53.714;11.372;2022-09-09T07:25:31;100446.34;;;15.75;100.00
61786;BME280;47692;53.714;11.372;2022-09-09T07:27:57;100448.25;;;15.72;100.00
61786;BME280;47692;53.714;11.372;2022-09-09T07:30:22;100441.03;;;15.58;100.00
61786;BME280;47692;53.714;11.372;2022-09-09T07:32:47;100438.13;;;15.81;100.00
61786;BME280;47692;53.714;11.372;2022-09-09T07:35:16;100434.16;;;16.09;100.00
61786;BME280;47692;53.714;11.372;2022-09-09T07:37:41;100448.47;;;16.04;100.00
61786;BME280;47692;53.714;11.372;2022-09-09T07:40:06;100447.03;;;16.67;100.00
61786;BME280;47692;53.714;11.372;2022-09-09T07:42:32;100445.22;;;16.85;99.87
61786;BME280;47692;53.714;11.372;2022-09-09T07:44:58;100445.97;;;17.36;97.70
61786;BME280;47692;53.714;11.372;2022-09-09T07:47:24;100458.00;;;18.04;92.39
61786;BME280;47692;53.714;11.372;2022-09-09T07:49:50;100450.41;;;17.52;93.76
61786;BME280;47692;53.714;11.372;2022-09-09T07:52:15;100454.81;;;17.03;96.38
61786;BME280;47692;53.714;11.372;2022-09-09T07:54:41;100451.59;;;16.63;99.14
61786;BME280;47692;53.714;11.372;2022-09-09T07:57:07;100450.00;;;16.43;100.00
61786;BME280;47692;53.714;11.372;2022-09-09T07:59:33;100452.44;;;16.30;100.00
61786;BME280;47692;53.714;11.372;2022-09-09T08:01:58;100450.13;;;16.24;100.00
61786;BME280;47692;53.714;11.372;2022-09-09T08:04:25;100450.66;;;16.13;100.00
61786;BME280;47692;53.714;11.372;2022-09-09T08:07:00;100462.66;;;16.54;100.00
61786;BME280;47692;53.714;11.372;2022-09-09T08:09:26;100452.75;;;16.92;100.00
61786;BME280;47692;53.714;11.372;2022-09-09T08:11:55;100463.31;;;17.72;95.23
61786;BME280;47692;53.714;11.372;2022-09-09T08:14:22;100459.84;;;17.56;94.70
61786;BME280;47692;53.714;11.372;2022-09-09T08:16:49;100466.53;;;17.77;95.32
61786;BME280;47692;53.714;11.372;2022-09-09T08:19:15;100466.88;;;18.03;92.87
61786;BME280;47692;53.714;11.372;2022-09-09T08:21:42;100469.25;;;18.08;91.79
61786;BME280;47692;53.714;11.372;2022-09-09T08:24:09;100468.47;;;18.36;90.66
61786;BME280;47692;53.714;11.372;2022-09-09T08:26:37;100470.38;;;18.63;89.29
61786;BME280;47692;53.714;11.372;2022-09-09T08:29:05;100472.53;;;18.42;90.85
61786;BME280;47692;53.714;11.372;2022-09-09T08:31:36;100468.44;;;17.75;94.83
61786;BME280;47692;53.714;11.372;2022-09-09T08:34:03;100464.34;;;17.22;95.61
61786;BME280;47692;53.714;11.372;2022-09-09T08:36:32;100461.41;;;16.94;98.29
61786;BME280;47692;53.714;11.372;2022-09-09T08:39:02;100464.44;;;16.87;99.89
61786;BME280;47692;53.714;11.372;2022-09-09T08:41:59;100459.34;;;16.84;100.00
61786;BME280;47692;53.714;11.372;2022-09-09T08:52:29;100485.13;;;17.44;98.28
61786;BME280;47692;53.714;11.372;2022-09-09T08:55:21;100483.94;;;17.50;97.22
61786;BME280;47692;53.714;11.372;2022-09-09T08:57:50;100484.97;;;17.63;96.82
61786;BME280;47692;53.714;11.372;2022-09-09T09:00:17;100476.75;;;17.84;96.04
61786;BME280;47692;53.714;11.372;2022-09-09T09:05:31;100492.28;;;18.51;89.87
61786;BME280;47692;53.714;11.372;2022-09-09T09:10:47;100493.00;;;19.68;86.83
61786;BME280;47692;53.714;11.372;2022-09-09T09:13:17;100484.00;;;21.53;76.64
61786;BME280;47692;53.714;11.372;2022-09-09T09:15:44;100485.94;;;22.82;71.53
61786;BME280;47692;53.714;11.372;2022-09-09T09:18:13;100487.13;;;22.44;72.40
61786;BME280;47692;53.714;11.372;2022-09-09T09:21:04;100479.56;;;21.91;72.67
61786;BME280;47692;53.714;11.372;2022-09-09T09:23:56;100480.63;;;19.96;79.71
61786;BME280;47692;53.714;11.372;2022-09-09T09:26:27;100485.84;;;19.56;82.92
61786;BME280;47692;53.714;11.372;2022-09-09T09:28:56;100486.91;;;19.53;83.10
61786;BME280;47692;53.714;11.372;2022-09-09T09:31:22;100485.16;;;19.25;85.10
61786;BME280;47692;53.714;11.372;2022-09-09T09:33:53;100491.59;;;18.92;87.16
61786;BME280;47692;53.714;11.372;2022-09-09T09:36:20;100480.78;;;18.81;88.07
61786;BME280;47692;53.714;11.372;2022-09-09T09:38:54;100476.44;;;18.65;87.68
61786;BME280;47692;53.714;11.372;2022-09-09T09:44:05;100480.44;;;18.72;87.47
61786;BME280;47692;53.714;11.372;2022-09-09T09:46:31;100473.06;;;18.92;88.05
61786;BME280;47692;53.714;11.372;2022-09-09T09:49:02;100479.47;;;18.88;86.86
61786;BME280;47692;53.714;11.372;2022-09-09T09:51:30;100475.91;;;19.18;86.77
61786;BME280;47692;53.714;11.372;2022-09-09T09:54:14;100484.13;;;19.69;84.49
61786;BME280;47692;53.714;11.372;2022-09-09T09:56:41;100473.03;;;19.77;82.04
61786;BME280;47692;53.714;11.372;2022-09-09T10:01:53;100473.16;;;20.16;79.25
61786;BME280;47692;53.714;11.372;2022-09-09T10:04:22;100467.38;;;19.96;78.44
61786;BME280;47692;53.714;11.372;2022-09-09T10:06:51;100477.94;;;20.24;78.61
61786;BME280;47692;53.714;11.372;2022-09-09T10:09:28;100479.69;;;20.10;79.41
61786;BME280;47692;53.714;11.372;2022-09-09T10:18:00;100473.22;;;20.67;76.77
61786;BME280;47692;53.714;11.372;2022-09-09T10:20:47;100477.66;;;20.67;76.13
61786;BME280;47692;53.714;11.372;2022-09-09T10:23:46;100472.16;;;20.96;73.52
61786;BME280;47692;53.714;11.372;2022-09-09T10:42:46;100483.31;;;22.00;70.14
61786;BME280;47692;53.714;11.372;2022-09-09T10:45:41;100486.22;;;21.72;71.79
61786;BME280;47692;53.714;11.372;2022-09-09T10:51:26;100493.16;;;21.12;75.10
61786;BME280;47692;53.714;11.372;2022-09-09T10:54:06;100498.03;;;20.66;76.12
61786;BME280;47692;53.714;11.372;2022-09-09T10:56:36;100500.44;;;20.44;78.90
61786;BME280;47692;53.714;11.372;2022-09-09T10:59:09;100501.19;;;20.46;80.01
61786;BME280;47692;53.714;11.372;2022-09-09T11:01:44;100508.19;;;20.47;80.41
61786;BME280;47692;53.714;11.372;2022-09-09T11:04:23;100504.00;;;20.83;77.62
61786;BME280;47692;53.714;11.372;2022-09-09T11:06:54;100506.91;;;21.43;77.05
61786;BME280;47692;53.714;11.372;2022-09-09T11:09:33;100506.09;;;22.15;72.44
61786;BME280;47692;53.714;11.372;2022-09-09T11:12:02;100505.44;;;22.36;69.36
61786;BME280;47692;53.714;11.372;2022-09-09T11:14:43;100505.97;;;22.41;69.47
61786;BME280;47692;53.714;11.372;2022-09-09T11:17:18;100503.41;;;22.86;68.94
61786;BME280;47692;53.714;11.372;2022-09-09T11:19:45;100505.56;;;23.04;69.84
61786;BME280;47692;53.714;11.372;2022-09-09T11:24:40;100493.47;;;23.45;69.73
61786;BME280;47692;53.714;11.372;2022-09-09T11:27:11;100499.72;;;23.55;65.22
61786;BME280;47692;53.714;11.372;2022-09-09T11:35:49;100497.16;;;22.40;67.17
61786;BME280;47692;53.714;11.372;2022-09-09T11:38:37;100493.16;;;21.86;69.36
61786;BME280;47692;53.714;11.372;2022-09-09T11:41:07;100495.19;;;21.45;70.40
61786;BME280;47692;53.714;11.372;2022-09-09T11:43:46;100489.09;;;21.19;72.09
61786;BME280;47692;53.714;11.372;2022-09-09T11:46:13;100494.88;;;20.87;73.17
61786;BME280;47692;53.714;11.372;2022-09-09T11:48:41;100493.41;;;20.83;73.69
61786;BME280;47692;53.714;11.372;2022-09-09T11:51:27;100498.75;;;21.70;72.31
61786;BME280;47692;53.714;11.372;2022-09-09T11:53:54;100492.84;;;22.26;69.38
61786;BME280;47692;53.714;11.372;2022-09-09T11:56:31;100499.50;;;21.97;71.21
61786;BME280;47692;53.714;11.372;2022-09-09T12:01:45;100502.88;;;22.70;69.19
61786;BME280;47692;53.714;11.372;2022-09-09T12:06:58;100488.81;;;22.45;68.51
61786;BME280;47692;53.714;11.372;2022-09-09T12:09:54;100492.19;;;22.47;70.70
61786;BME280;47692;53.714;11.372;2022-09-09T12:12:23;100485.69;;;22.63;69.38
61786;BME280;47692;53.714;11.372;2022-09-09T12:17:42;100489.34;;;22.73;70.51
61786;BME280;47692;53.714;11.372;2022-09-09T12:20:17;100482.81;;;23.11;68.57
61786;BME280;47692;53.714;11.372;2022-09-09T12:23:04;100483.28;;;22.94;66.89
61786;BME280;47692;53.714;11.372;2022-09-09T12:28:33;100485.19;;;21.86;71.39
61786;BME280;47692;53.714;11.372;2022-09-09T12:31:10;100483.44;;;21.74;71.80
61786;BME280;47692;53.714;11.372;2022-09-09T12:33:43;100483.50;;;21.85;70.79
61786;BME280;47692;53.714;11.372;2022-09-09T12:36:28;100485.47;;;22.88;67.91
61786;BME280;47692;53.714;11.372;2022-09-09T12:38:59;100475.78;;;23.44;64.87
61786;BME280;47692;53.714;11.372;2022-09-09T12:44:50;100480.00;;;23.47;66.41
61786;BME280;47692;53.714;11.372;2022-09-09T12:47:17;100480.56;;;24.06;65.74
61786;BME280;47692;53.714;11.372;2022-09-09T12:49:43;100486.91;;;24.26;62.23
61786;BME280;47692;53.714;11.372;2022-09-09T12:52:37;100480.31;;;24.30;64.09
61786;BME280;47692;53.714;11.372;2022-09-09T12:55:04;100481.06;;;24.32;60.54
61786;BME280;47692;53.714;11.372;2022-09-09T12:57:37;100481.00;;;24.22;61.92
61786;BME280;47692;53.714;11.372;2022-09-09T13:00:15;100469.84;;;23.96;62.45
61786;BME280;47692;53.714;11.372;2022-09-09T13:02:50;100464.69;;;23.71;63.17
61786;BME280;47692;53.714;11.372;2022-09-09T13:05:25;100461.94;;;23.62;63.10
61786;BME280;47692;53.714;11.372;2022-09-09T13:07:50;100455.59;;;23.74;63.07
61786;BME280;47692;53.714;11.372;2022-09-09T13:10:24;100459.94;;;23.75;63.14
61786;BME280;47692;53.714;11.372;2022-09-09T13:12:52;100457.28;;;23.75;63.31
61786;BME280;47692;53.714;11.372;2022-09-09T13:15:22;100459.56;;;24.12;63.66
61786;BME280;47692;53.714;11.372;2022-09-09T13:17:50;100448.22;;;23.66;61.15
61786;BME280;47692;53.714;11.372;2022-09-09T13:20:17;100450.41;;;23.29;63.63
61786;BME280;47692;53.714;11.372;2022-09-09T13:22:43;100445.31;;;23.03;64.44
61786;BME280;47692;53.714;11.372;2022-09-09T13:27:38;100455.13;;;22.21;66.90
61786;BME280;47692;53.714;11.372;2022-09-09T13:30:32;100447.88;;;21.88;66.85
61786;BME280;47692;53.714;11.372;2022-09-09T13:33:03;100452.72;;;21.58;67.90
61786;BME280;47692;53.714;11.372;2022-09-09T13:35:29;100456.75;;;21.51;68.96
61786;BME280;47692;53.714;11.372;2022-09-09T13:37:55;100466.84;;;21.46;68.99
61786;BME280;47692;53.714;11.372;2022-09-09T13:40:23;100459.34;;;21.40;69.35
61786;BME280;47692;53.714;11.372;2022-09-09T13:42:52;100459.09;;;21.43;69.17
61786;BME280;47692;53.714;11.372;2022-09-09T13:45:22;100467.72;;;21.95;68.09
61786;BME280;47692;53.714;11.372;2022-09-09T13:47:49;100458.38;;;22.49;66.26
61786;BME280;47692;53.714;11.372;2022-09-09T13:50:26;100454.75;;;22.73;66.04
61786;BME280;47692;53.714;11.372;2022-09-09T13:52:57;100456.91;;;23.13;64.99
61786;BME280;47692;53.714;11.372;2022-09-09T13:55:27;100461.28;;;23.03;65.20
61786;BME280;47692;53.714;11.372;2022-09-09T13:57:54;100462.34;;;22.55;66.31
61786;BME280;47692;53.714;11.372;2022-09-09T14:00:22;100454.50;;;22.18;68.24
61786;BME280;47692;53.714;11.372;2022-09-09T14:02:48;100452.50;;;21.97;68.22
61786;BME280;47692;53.714;11.372;2022-09-09T14:05:14;100457.63;;;21.76;69.39
61786;BME280;47692;53.714;11.372;2022-09-09T14:07:41;100449.22;;;21.45;70.11
61786;BME280;47692;53.714;11.372;2022-09-09T14:10:08;100446.19;;;21.25;70.79
61786;BME280;47692;53.714;11.372;2022-09-09T14:12:33;100448.97;;;21.11;71.61
61786;BME280;47692;53.714;11.372;2022-09-09T14:14:59;100439.47;;;20.95;72.19
61786;BME280;47692;53.714;11.372;2022-09-09T14:17:27;100450.16;;;21.07;72.66
61786;BME280;47692;53.714;11.372;2022-09-09T14:19:55;100446.56;;;21.08;71.21
61786;BME280;47692;53.714;11.372;2022-09-09T14:22:21;100449.34;;;20.93;71.99
61786;BME280;47692;53.714;11.372;2022-09-09T14:24:46;100440.56;;;20.80;72.32
61786;BME280;47692;53.714;11.372;2022-09-09T14:27:12;100445.44;;;20.60;72.64
61786;BME280;47692;53.714;11.372;2022-09-09T14:29:37;100445.09;;;20.52;73.85
61786;BME280;47692;53.714;11.372;2022-09-09T14:32:03;100455.38;;;20.44;74.23
61786;BME280;47692;53.714;11.372;2022-09-09T14:34:28;100455.59;;;20.28;74.31
61786;BME280;47692;53.714;11.372;2022-09-09T14:36:54;100461.25;;;20.09;75.21
61786;BME280;47692;53.714;11.372;2022-09-09T14:39:19;100466.44;;;19.97;76.69
61786;BME280;47692;53.714;11.372;2022-09-09T14:41:44;100471.38;;;19.89;76.50